createdAt,value
2022-08-04T00:02:54.623Z,1.30
2022-08-04T00:08:06.947Z,1.30
2022-08-04T00:13:12.569Z,1.13
2022-08-04T00:18:18.521Z,1.40
2022-08-04T00:23:21.579Z,1.60
2022-08-04T00:28:26.352Z,1.50
2022-08-04T00:33:30.820Z,1.30
2022-08-04T00:38:35.444Z,1.40
2022-08-04T00:43:50.982Z,1.10
2022-08-04T00:49:30.261Z,1.70
2022-08-04T00:54:39.678Z,1.10
2022-08-04T01:00:04.948Z,1.20
2022-08-04T01:05:16.693Z,1.20
2022-08-04T01:10:29.998Z,1.10
2022-08-04T01:16:00.159Z,0.90
2022-08-04T01:21:32.366Z,1.23
2022-08-04T01:26:57.699Z,1.17
2022-08-04T01:32:08.438Z,1.10
2022-08-04T01:37:34.573Z,1.00
2022-08-04T01:42:39.954Z,1.17
2022-08-04T01:47:51.528Z,1.10
2022-08-04T01:52:56.059Z,1.20
2022-08-04T01:58:01.691Z,1.10
2022-08-04T02:03:05.957Z,1.27
2022-08-04T02:08:21.961Z,1.20
2022-08-04T02:13:30.625Z,1.40
2022-08-04T02:18:46.039Z,1.60
2022-08-04T02:23:55.073Z,1.20
2022-08-04T02:29:04.716Z,1.10
2022-08-04T02:34:18.445Z,1.30
2022-08-04T02:39:23.088Z,1.10
2022-08-04T02:44:29.381Z,1.10
2022-08-04T02:49:37.785Z,1.30
2022-08-04T02:54:46.626Z,1.27
2022-08-04T03:00:06.596Z,1.17
2022-08-04T03:05:18.039Z,1.45
2022-08-04T03:10:35.233Z,1.38
2022-08-04T03:16:02.281Z,1.10
2022-08-04T03:21:33.487Z,1.40
2022-08-04T03:26:59.271Z,1.40
2022-08-04T03:32:44.949Z,1.23
2022-08-04T03:38:15.709Z,1.50
2022-08-04T03:43:56.825Z,1.52
2022-08-04T03:49:38.569Z,1.48
2022-08-04T03:55:06.296Z,1.52
2022-08-04T04:00:13.532Z,1.40
2022-08-04T04:05:58.762Z,1.50
2022-08-04T04:11:31.406Z,1.63
2022-08-04T04:16:45.137Z,1.42
2022-08-04T04:22:09.631Z,1.30
2022-08-04T04:32:28.223Z,1.90
2022-08-04T04:37:49.074Z,1.52
2022-08-04T04:43:20.030Z,1.67
2022-08-04T04:48:34.997Z,1.58
2022-08-04T04:53:48.667Z,1.80
2022-08-04T04:58:55.361Z,1.60
2022-08-04T05:04:13.199Z,1.83
2022-08-04T05:09:39.881Z,1.65
2022-08-04T05:14:47.451Z,1.80
2022-08-04T05:19:58.754Z,1.85
2022-08-04T05:25:07.393Z,1.80
2022-08-04T05:30:13.526Z,1.77
2022-08-04T05:35:47.929Z,1.70
2022-08-04T05:40:47.075Z,1.88
2022-08-04T05:45:53.091Z,2.15
2022-08-04T05:51:00.708Z,2.13
2022-08-04T05:56:07.275Z,1.80
2022-08-04T06:01:12.794Z,2.05
2022-08-04T06:06:16.380Z,1.73
2022-08-04T06:11:20.676Z,1.93
2022-08-04T06:21:35.438Z,1.80
2022-08-04T06:26:40.327Z,2.20
2022-08-04T06:32:26.968Z,2.15
2022-08-04T06:37:42.876Z,2.05
2022-08-04T06:42:45.515Z,2.10
2022-08-04T06:47:51.010Z,1.75
2022-08-04T06:52:53.967Z,1.70
2022-08-04T06:58:02.777Z,1.80
2022-08-04T07:03:08.362Z,1.50
2022-08-04T07:08:12.169Z,1.55
2022-08-04T07:13:15.461Z,1.50
2022-08-04T07:18:19.819Z,1.90
2022-08-04T07:23:25.330Z,1.77
2022-08-04T07:28:29.842Z,1.70
2022-08-04T07:33:34.525Z,1.55
2022-08-04T07:38:37.890Z,1.70
2022-08-04T07:43:52.647Z,1.48
2022-08-04T07:48:58.231Z,1.70
2022-08-04T07:54:03.401Z,1.75
2022-08-04T07:59:07.284Z,1.73
2022-08-04T08:04:12.606Z,1.55
2022-08-04T08:09:16.940Z,1.88
2022-08-04T08:14:20.650Z,1.80
2022-08-04T08:19:25.846Z,1.80
2022-08-04T08:24:29.348Z,1.70
2022-08-04T08:29:35.428Z,1.70
2022-08-04T08:34:40.339Z,1.58
2022-08-04T08:39:51.254Z,1.70
2022-08-04T08:45:21.670Z,1.67
2022-08-04T08:50:53.335Z,1.88
2022-08-04T08:56:12.666Z,1.85
2022-08-04T09:01:38.779Z,1.70
2022-08-04T09:07:00.354Z,1.60
2022-08-04T09:12:10.530Z,1.75
2022-08-04T09:17:21.885Z,1.73
2022-08-04T09:22:38.805Z,1.60
2022-08-04T09:27:47.840Z,1.90
2022-08-04T09:33:02.548Z,2.05
2022-08-04T09:38:16.236Z,1.67
2022-08-04T09:48:56.174Z,1.92
2022-08-04T09:54:30.827Z,1.58
2022-08-04T09:59:41.572Z,1.80
2022-08-04T10:04:45.324Z,1.52
2022-08-04T10:10:11.561Z,1.63
2022-08-04T10:15:18.334Z,1.45
2022-08-04T10:20:44.937Z,1.60
2022-08-04T10:26:08.481Z,1.45
2022-08-04T10:31:18.442Z,1.75
2022-08-04T10:36:25.042Z,1.50
2022-08-04T10:41:39.457Z,1.58
2022-08-04T10:46:48.606Z,1.50
2022-08-04T10:52:00.556Z,1.63
2022-08-04T10:57:12.154Z,1.50
2022-08-04T11:02:28.340Z,1.73
2022-08-04T11:07:34.332Z,1.48
2022-08-04T11:12:41.583Z,1.30
2022-08-04T11:17:48.807Z,1.65
2022-08-04T11:23:08.173Z,1.50
2022-08-04T11:28:20.193Z,1.30
2022-08-04T11:33:32.468Z,1.50
2022-08-04T11:38:45.268Z,1.50
2022-08-04T11:44:02.378Z,1.90
2022-08-04T11:49:09.706Z,2.17
2022-08-04T11:54:13.739Z,1.67
2022-08-04T11:59:20.628Z,1.40
2022-08-04T12:04:37.244Z,1.63
2022-08-04T12:09:48.200Z,1.55
2022-08-04T12:14:59.842Z,1.52
2022-08-04T12:20:31.866Z,1.52
2022-08-04T12:25:34.345Z,1.50
2022-08-04T12:30:59.817Z,1.50
2022-08-04T12:36:20.956Z,1.45
2022-08-04T12:41:28.993Z,1.38
2022-08-04T12:46:34.221Z,1.50
2022-08-04T12:52:07.936Z,1.30
2022-08-04T12:57:09.600Z,1.67
2022-08-04T13:02:17.959Z,1.25
2022-08-04T13:07:26.109Z,1.42
2022-08-04T13:12:32.400Z,1.20
2022-08-04T13:17:50.747Z,1.63
2022-08-04T13:22:59.425Z,1.30
2022-08-04T13:28:03.318Z,1.40
2022-08-04T13:33:08.740Z,1.50
2022-08-04T13:38:13.382Z,1.48
2022-08-04T13:44:16.043Z,1.65
2022-08-04T13:49:23.577Z,1.40
2022-08-04T13:54:17.565Z,1.25
2022-08-04T13:59:23.840Z,1.40
2022-08-04T14:04:29.310Z,1.40
2022-08-04T14:09:36.028Z,1.42
2022-08-04T14:14:47.354Z,1.77
2022-08-04T14:19:54.187Z,1.43
2022-08-04T14:24:58.199Z,1.65
2022-08-04T14:30:01.097Z,1.45
2022-08-04T14:35:13.391Z,1.40
2022-08-04T14:40:30.490Z,1.42
2022-08-04T14:45:35.686Z,1.40
2022-08-04T14:50:41.865Z,1.20
2022-08-04T14:55:47.813Z,1.30
2022-08-04T15:00:51.445Z,1.10
2022-08-04T15:06:05.531Z,1.30
2022-08-04T15:11:10.986Z,1.50
2022-08-04T15:16:29.360Z,1.00
2022-08-04T15:21:34.409Z,1.30
2022-08-04T15:26:40.522Z,1.30
2022-08-04T15:32:07.281Z,1.27
2022-08-04T15:37:10.105Z,1.55
2022-08-04T15:42:21.222Z,1.50
2022-08-04T15:47:24.672Z,1.63
2022-08-04T15:52:32.004Z,1.42
2022-08-04T15:58:00.714Z,1.60
2022-08-04T16:03:03.532Z,1.20
2022-08-04T16:08:15.850Z,1.40
2022-08-04T16:13:21.973Z,1.20
2022-08-04T16:18:43.755Z,1.35
2022-08-04T16:24:12.835Z,1.33
2022-08-04T16:29:34.185Z,1.30
2022-08-04T16:34:49.395Z,1.70
2022-08-04T16:40:33.278Z,1.60
2022-08-04T16:45:42.318Z,1.60
2022-08-04T16:50:53.389Z,1.42
2022-08-04T16:55:58.330Z,1.48
2022-08-04T17:01:11.237Z,1.80
2022-08-04T17:06:24.817Z,1.77
2022-08-04T17:11:33.789Z,1.55
2022-08-04T17:16:38.996Z,1.77
2022-08-04T17:21:41.800Z,1.90
2022-08-04T17:26:54.527Z,2.45
2022-08-04T17:31:58.074Z,2.10
2022-08-04T17:37:36.460Z,2.15
2022-08-04T17:42:34.299Z,2.50
2022-08-04T17:47:50.045Z,2.13
2022-08-04T17:53:01.356Z,1.90
2022-08-04T18:03:43.167Z,2.80
2022-08-04T18:08:57.969Z,2.55
2022-08-04T18:14:03.478Z,2.80
2022-08-04T18:19:10.171Z,2.05
2022-08-04T18:24:13.568Z,2.20
2022-08-04T18:29:31.343Z,2.72
2022-08-04T18:34:35.339Z,2.50
2022-08-04T18:40:17.281Z,2.45
2022-08-04T18:50:40.009Z,2.30
2022-08-04T18:55:56.667Z,1.92
2022-08-04T19:01:00.430Z,2.22
2022-08-04T19:06:04.426Z,4.68
2022-08-04T19:11:38.362Z,2.60
2022-08-04T19:16:35.151Z,2.10
2022-08-04T19:22:00.874Z,2.10
2022-08-04T19:27:07.818Z,1.80
2022-08-04T19:32:16.222Z,1.60
2022-08-04T19:37:56.098Z,2.20
2022-08-04T19:42:43.421Z,1.90
2022-08-04T19:48:11.231Z,1.77
2022-08-04T19:53:18.679Z,1.85
2022-08-04T19:58:26.333Z,1.98
2022-08-04T20:04:09.558Z,3.70
2022-08-04T20:08:53.759Z,7.32
2022-08-04T20:13:59.359Z,3.05
2022-08-04T20:19:09.279Z,2.65
2022-08-04T20:24:38.951Z,2.50
2022-08-04T20:29:40.948Z,2.43
2022-08-04T20:34:47.386Z,2.10
2022-08-04T20:39:55.346Z,2.08
2022-08-04T20:44:58.635Z,2.53
2022-08-04T20:50:03.168Z,2.38
2022-08-04T20:55:07.480Z,4.57
2022-08-04T21:00:13.296Z,2.60
2022-08-04T21:05:18.022Z,2.33
2022-08-04T21:10:21.942Z,2.00
2022-08-04T21:15:26.419Z,2.10
2022-08-04T21:25:58.021Z,2.30
2022-08-04T21:31:02.472Z,2.20
2022-08-04T21:36:19.952Z,1.73
2022-08-04T21:41:24.933Z,1.92
2022-08-04T21:46:30.627Z,2.67
2022-08-04T21:52:00.329Z,2.15
2022-08-04T21:56:59.858Z,2.10
2022-08-04T22:02:08.531Z,2.00
2022-08-04T22:07:12.766Z,2.10
2022-08-04T22:12:20.976Z,2.20
2022-08-04T22:17:24.343Z,2.00
2022-08-04T22:22:29.404Z,2.33
2022-08-04T22:27:55.394Z,2.30
2022-08-04T22:32:58.483Z,1.98
2022-08-04T22:38:07.842Z,2.03
2022-08-04T22:43:32.856Z,2.10
2022-08-04T22:48:39.478Z,2.33
2022-08-04T22:53:49.177Z,2.33
2022-08-04T22:58:52.118Z,2.30
2022-08-04T23:03:57.497Z,2.33
2022-08-04T23:09:01.697Z,2.20
2022-08-04T23:14:05.466Z,2.30
2022-08-04T23:19:09.938Z,1.98
2022-08-04T23:24:16.436Z,2.22
2022-08-04T23:29:19.256Z,2.30
2022-08-04T23:34:22.087Z,1.83
2022-08-04T23:39:42.191Z,1.90
2022-08-04T23:49:51.767Z,2.20
2022-08-04T23:55:02.418Z,2.00
